sensor_id;sensor_type;location;lat;lon;timestamp;pressure;altitude;pressure_sealevel;temperature;humidity
79004;BME280;68369;51.050;17.018;2023-06-04T00:00:08;100671.75;;;10.80;49.76
79004;BME280;68369;51.050;17.018;2023-06-04T00:05:59;100677.23;;;10.74;49.74
79004;BME280;68369;51.050;17.018;2023-06-04T00:08:44;100679.95;;;10.71;50.18
79004;BME280;68369;51.050;17.018;2023-06-04T00:14:45;100665.58;;;10.62;50.33
79004;BME280;68369;51.050;17.018;2023-06-04T00:20:25;100668.13;;;10.55;50.77
79004;BME280;68369;51.050;17.018;2023-06-04T00:26:04;100663.96;;;10.50;51.08
79004;BME280;68369;51.050;17.018;2023-06-04T00:28:54;100666.91;;;10.45;51.21
79004;BME280;68369;51.050;17.018;2023-06-04T00:31:39;100664.75;;;10.41;51.44
79004;BME280;68369;51.050;17.018;2023-06-04T00:34:25;100664.16;;;10.39;51.52
79004;BME280;68369;51.050;17.018;2023-06-04T00:40:18;100668.52;;;10.34;51.60
79004;BME280;68369;51.050;17.018;2023-06-04T00:43:04;100661.89;;;10.28;51.75
79004;BME280;68369;51.050;17.018;2023-06-04T00:45:52;100659.02;;;10.25;51.68
79004;BME280;68369;51.050;17.018;2023-06-04T00:51:59;100648.43;;;10.13;52.09
79004;BME280;68369;51.050;17.018;2023-06-04T01:04:54;100653.88;;;9.97;52.71
79004;BME280;68369;51.050;17.018;2023-06-04T01:07:43;100652.47;;;9.92;52.80
79004;BME280;68369;51.050;17.018;2023-06-04T01:10:31;100651.91;;;9.88;53.32
79004;BME280;68369;51.050;17.018;2023-06-04T01:13:16;100654.20;;;9.82;53.44
79004;BME280;68369;51.050;17.018;2023-06-04T01:18:47;100653.10;;;9.72;53.78
79004;BME280;68369;51.050;17.018;2023-06-04T01:24:59;100654.00;;;9.62;53.91
79004;BME280;68369;51.050;17.018;2023-06-04T01:30:49;100659.43;;;9.56;54.75
79004;BME280;68369;51.050;17.018;2023-06-04T01:33:36;100657.51;;;9.51;54.84
79004;BME280;68369;51.050;17.018;2023-06-04T01:49:43;100654.15;;;9.24;55.26
79004;BME280;68369;51.050;17.018;2023-06-04T01:55:47;100653.91;;;9.15;55.65
79004;BME280;68369;51.050;17.018;2023-06-04T01:58:34;100656.34;;;9.10;55.64
79004;BME280;68369;51.050;17.018;2023-06-04T02:01:20;100656.29;;;9.06;56.24
79004;BME280;68369;51.050;17.018;2023-06-04T02:04:05;100657.77;;;9.03;56.04
79004;BME280;68369;51.050;17.018;2023-06-04T02:06:52;100657.13;;;9.01;56.57
79004;BME280;68369;51.050;17.018;2023-06-04T02:26:04;100653.17;;;8.76;57.50
79004;BME280;68369;51.050;17.018;2023-06-04T02:38:40;100659.89;;;8.85;57.38
79004;BME280;68369;51.050;17.018;2023-06-04T02:41:27;100662.05;;;8.88;57.77
79004;BME280;68369;51.050;17.018;2023-06-04T02:44:14;100663.91;;;8.90;57.45
79004;BME280;68369;51.050;17.018;2023-06-04T02:47:00;100653.58;;;8.86;57.97
79004;BME280;68369;51.050;17.018;2023-06-04T02:49:46;100663.73;;;8.91;57.74
79004;BME280;68369;51.050;17.018;2023-06-04T02:52:31;100667.05;;;8.90;57.84
79004;BME280;68369;51.050;17.018;2023-06-04T03:04:23;100664.03;;;8.81;57.91
79004;BME280;68369;51.050;17.018;2023-06-04T03:07:10;100667.61;;;8.78;58.28
79004;BME280;68369;51.050;17.018;2023-06-04T03:10:00;100663.95;;;8.72;58.27
79004;BME280;68369;51.050;17.018;2023-06-04T03:15:49;100672.59;;;8.68;58.75
79004;BME280;68369;51.050;17.018;2023-06-04T03:18:37;100674.42;;;8.65;58.61
79004;BME280;68369;51.050;17.018;2023-06-04T03:21:23;100675.46;;;8.60;58.78
79004;BME280;68369;51.050;17.018;2023-06-04T03:27:25;100681.21;;;8.54;59.28
79004;BME280;68369;51.050;17.018;2023-06-04T03:30:11;100688.23;;;8.53;59.73
79004;BME280;68369;51.050;17.018;2023-06-04T03:32:56;100690.66;;;8.53;59.42
79004;BME280;68369;51.050;17.018;2023-06-04T03:35:42;100690.30;;;8.53;59.77
79004;BME280;68369;51.050;17.018;2023-06-04T03:41:29;100679.37;;;8.57;59.96
79004;BME280;68369;51.050;17.018;2023-06-04T03:47:09;100688.36;;;8.79;59.85
79004;BME280;68369;51.050;17.018;2023-06-04T03:49:55;100689.95;;;8.84;59.81
79004;BME280;68369;51.050;17.018;2023-06-04T03:52:42;100689.82;;;8.88;59.92
79004;BME280;68369;51.050;17.018;2023-06-04T03:55:28;100690.29;;;8.90;59.77
79004;BME280;68369;51.050;17.018;2023-06-04T03:58:17;100696.34;;;8.92;59.92
79004;BME280;68369;51.050;17.018;2023-06-04T04:01:02;100695.09;;;8.93;59.94
79004;BME280;68369;51.050;17.018;2023-06-04T04:03:51;100692.41;;;8.95;60.02
79004;BME280;68369;51.050;17.018;2023-06-04T04:06:37;100686.27;;;8.91;60.13
79004;BME280;68369;51.050;17.018;2023-06-04T04:15:33;100695.17;;;9.02;60.74
79004;BME280;68369;51.050;17.018;2023-06-04T04:18:21;100696.14;;;9.05;60.95
79004;BME280;68369;51.050;17.018;2023-06-04T04:23:56;100692.27;;;9.12;60.73
79004;BME280;68369;51.050;17.018;2023-06-04T04:29:39;100697.64;;;9.19;61.20
79004;BME280;68369;51.050;17.018;2023-06-04T04:35:53;100699.39;;;9.41;61.15
79004;BME280;68369;51.050;17.018;2023-06-04T04:38:39;100700.45;;;9.52;60.91
79004;BME280;68369;51.050;17.018;2023-06-04T04:41:25;100698.94;;;9.61;60.70
79004;BME280;68369;51.050;17.018;2023-06-04T04:46:49;100703.63;;;9.78;60.90
79004;BME280;68369;51.050;17.018;2023-06-04T04:49:35;100705.31;;;9.85;60.86
79004;BME280;68369;51.050;17.018;2023-06-04T04:52:20;100705.81;;;9.92;60.53
79004;BME280;68369;51.050;17.018;2023-06-04T04:57:58;100701.80;;;10.07;60.40
79004;BME280;68369;51.050;17.018;2023-06-04T05:00:44;100699.12;;;10.14;60.32
79004;BME280;68369;51.050;17.018;2023-06-04T05:03:29;100704.67;;;10.20;60.20
79004;BME280;68369;51.050;17.018;2023-06-04T05:06:14;100710.75;;;10.27;60.15
79004;BME280;68369;51.050;17.018;2023-06-04T05:09:00;100712.08;;;10.35;60.31
79004;BME280;68369;51.050;17.018;2023-06-04T05:11:45;100709.70;;;10.42;60.24
79004;BME280;68369;51.050;17.018;2023-06-04T05:14:31;100711.02;;;10.50;60.24
79004;BME280;68369;51.050;17.018;2023-06-04T05:17:16;100709.87;;;10.58;60.22
79004;BME280;68369;51.050;17.018;2023-06-04T05:30:16;100709.67;;;11.01;59.52
79004;BME280;68369;51.050;17.018;2023-06-04T05:36:17;100714.30;;;11.22;57.93
79004;BME280;68369;51.050;17.018;2023-06-04T05:39:03;100714.05;;;11.33;57.96
79004;BME280;68369;51.050;17.018;2023-06-04T05:41:49;100717.48;;;11.44;58.03
79004;BME280;68369;51.050;17.018;2023-06-04T05:44:34;100713.39;;;11.54;57.73
79004;BME280;68369;51.050;17.018;2023-06-04T06:03:12;100716.95;;;12.42;56.22
79004;BME280;68369;51.050;17.018;2023-06-04T06:09:03;100717.06;;;12.76;55.37
79004;BME280;68369;51.050;17.018;2023-06-04T08:01:42;100730.64;;;28.64;24.39
79004;BME280;68369;51.050;17.018;2023-06-04T09:38:06;100735.11;;;26.49;24.28
79004;BME280;68369;51.050;17.018;2023-06-04T09:40:52;100737.61;;;26.45;24.53
79004;BME280;68369;51.050;17.018;2023-06-04T09:43:38;100740.30;;;26.46;25.12
79004;BME280;68369;51.050;17.018;2023-06-04T10:05:11;100715.52;;;26.42;24.74
79004;BME280;68369;51.050;17.018;2023-06-04T10:14:41;100704.86;;;26.62;24.99
79004;BME280;68369;51.050;17.018;2023-06-04T10:17:37;100704.39;;;26.67;24.34
79004;BME280;68369;51.050;17.018;2023-06-04T10:37:45;100703.90;;;27.25;22.48
79004;BME280;68369;51.050;17.018;2023-06-04T10:40:38;100700.77;;;27.32;22.19
79004;BME280;68369;51.050;17.018;2023-06-04T10:46:41;100694.92;;;27.46;22.82
79004;BME280;68369;51.050;17.018;2023-06-04T10:49:30;100697.29;;;27.49;21.61
79004;BME280;68369;51.050;17.018;2023-06-04T11:02:33;100685.30;;;26.94;22.12
79004;BME280;68369;51.050;17.018;2023-06-04T11:41:46;100666.52;;;27.50;21.92
79004;BME280;68369;51.050;17.018;2023-06-04T11:44:41;100667.80;;;27.61;21.20
79004;BME280;68369;51.050;17.018;2023-06-04T12:07:36;100665.81;;;27.92;20.80
79004;BME280;68369;51.050;17.018;2023-06-04T12:10:23;100661.73;;;27.95;21.60
79004;BME280;68369;51.050;17.018;2023-06-04T12:20:11;100658.34;;;28.13;21.09
79004;BME280;68369;51.050;17.018;2023-06-04T13:06:48;100642.48;;;28.24;20.24
79004;BME280;68369;51.050;17.018;2023-06-04T13:36:26;100622.45;;;28.60;20.14
79004;BME280;68369;51.050;17.018;2023-06-04T15:43:00;100560.06;;;26.25;22.08
79004;BME280;68369;51.050;17.018;2023-06-04T15:45:50;100568.08;;;26.12;22.14
79004;BME280;68369;51.050;17.018;2023-06-04T15:51:35;100566.31;;;25.93;22.31
79004;BME280;68369;51.050;17.018;2023-06-04T15:54:20;100561.00;;;25.85;22.77
79004;BME280;68369;51.050;17.018;2023-06-04T15:57:24;100560.02;;;25.76;22.31
79004;BME280;68369;51.050;17.018;2023-06-04T16:00:12;100559.06;;;25.69;22.87
79004;BME280;68369;51.050;17.018;2023-06-04T16:03:00;100560.56;;;25.59;22.71
79004;BME280;68369;51.050;17.018;2023-06-04T16:05:46;100556.05;;;25.51;22.72
79004;BME280;68369;51.050;17.018;2023-06-04T16:11:49;100551.61;;;25.29;23.30
79004;BME280;68369;51.050;17.018;2023-06-04T16:14:34;100555.77;;;25.19;23.35
79004;BME280;68369;51.050;17.018;2023-06-04T16:20:36;100549.02;;;25.01;23.82
79004;BME280;68369;51.050;17.018;2023-06-04T16:23:22;100553.54;;;24.91;23.85
79004;BME280;68369;51.050;17.018;2023-06-04T16:26:10;100554.02;;;24.83;23.86
79004;BME280;68369;51.050;17.018;2023-06-04T16:28:56;100553.09;;;24.72;23.95
79004;BME280;68369;51.050;17.018;2023-06-04T16:31:41;100560.59;;;24.61;24.36
79004;BME280;68369;51.050;17.018;2023-06-04T16:34:34;100561.73;;;24.49;23.93
79004;BME280;68369;51.050;17.018;2023-06-04T16:53:24;100567.12;;;23.74;24.55
79004;BME280;68369;51.050;17.018;2023-06-04T17:02:34;100567.98;;;23.38;25.37
79004;BME280;68369;51.050;17.018;2023-06-04T17:05:20;100571.22;;;23.28;25.68
79004;BME280;68369;51.050;17.018;2023-06-04T17:08:13;100569.94;;;23.16;26.08
79004;BME280;68369;51.050;17.018;2023-06-04T17:11:01;100568.79;;;23.05;26.33
79004;BME280;68369;51.050;17.018;2023-06-04T17:13:50;100574.03;;;22.96;26.40
79004;BME280;68369;51.050;17.018;2023-06-04T17:16:37;100569.90;;;22.85;26.27
79004;BME280;68369;51.050;17.018;2023-06-04T17:19:22;100566.74;;;22.72;26.93
79004;BME280;68369;51.050;17.018;2023-06-04T17:22:08;100567.14;;;22.62;26.65
79004;BME280;68369;51.050;17.018;2023-06-04T17:24:54;100567.16;;;22.51;26.78
79004;BME280;68369;51.050;17.018;2023-06-04T17:27:42;100568.06;;;22.41;26.96
79004;BME280;68369;51.050;17.018;2023-06-04T17:36:50;100570.45;;;22.15;27.73
79004;BME280;68369;51.050;17.018;2023-06-04T17:39:37;100570.42;;;22.08;27.81
79004;BME280;68369;51.050;17.018;2023-06-04T17:42:22;100571.88;;;22.01;27.81
79004;BME280;68369;51.050;17.018;2023-06-04T17:45:12;100570.28;;;21.93;27.74
79004;BME280;68369;51.050;17.018;2023-06-04T17:47:59;100571.63;;;21.83;27.74
79004;BME280;68369;51.050;17.018;2023-06-04T17:50:50;100572.37;;;21.70;27.80
79004;BME280;68369;51.050;17.018;2023-06-04T18:00:07;100570.91;;;21.32;27.90
79004;BME280;68369;51.050;17.018;2023-06-04T18:02:53;100571.83;;;21.21;27.91
79004;BME280;68369;51.050;17.018;2023-06-04T18:05:40;100576.29;;;21.10;27.93
79004;BME280;68369;51.050;17.018;2023-06-04T18:27:25;100579.50;;;20.28;28.92
79004;BME280;68369;51.050;17.018;2023-06-04T18:30:11;100575.23;;;20.16;29.08
79004;BME280;68369;51.050;17.018;2023-06-04T18:32:59;100581.29;;;20.05;29.22
79004;BME280;68369;51.050;17.018;2023-06-04T18:45:24;100592.04;;;19.50;30.53
79004;BME280;68369;51.050;17.018;2023-06-04T18:48:10;100595.40;;;19.38;30.85
79004;BME280;68369;51.050;17.018;2023-06-04T18:50:57;100595.73;;;19.27;31.13
79004;BME280;68369;51.050;17.018;2023-06-04T18:53:44;100598.09;;;19.14;31.48
79004;BME280;68369;51.050;17.018;2023-06-04T18:56:30;100597.69;;;19.00;31.86
79004;BME280;68369;51.050;17.018;2023-06-04T18:59:17;100604.48;;;18.85;32.21
79004;BME280;68369;51.050;17.018;2023-06-04T19:02:03;100607.41;;;18.71;32.71
79004;BME280;68369;51.050;17.018;2023-06-04T19:04:53;100608.08;;;18.56;33.17
79004;BME280;68369;51.050;17.018;2023-06-04T19:07:38;100612.63;;;18.42;33.65
79004;BME280;68369;51.050;17.018;2023-06-04T19:10:27;100612.33;;;18.29;34.34
79004;BME280;68369;51.050;17.018;2023-06-04T19:16:27;100623.63;;;18.01;35.31
79004;BME280;68369;51.050;17.018;2023-06-04T19:19:13;100628.77;;;17.88;35.91
79004;BME280;68369;51.050;17.018;2023-06-04T19:21:58;100631.99;;;17.77;36.47
79004;BME280;68369;51.050;17.018;2023-06-04T19:24:44;100633.05;;;17.63;36.91
79004;BME280;68369;51.050;17.018;2023-06-04T19:37:16;100639.05;;;17.09;38.63
79004;BME280;68369;51.050;17.018;2023-06-04T20:08:26;100655.66;;;16.21;40.01
79004;BME280;68369;51.050;17.018;2023-06-04T20:11:14;100652.84;;;16.13;40.05
79004;BME280;68369;51.050;17.018;2023-06-04T20:14:00;100661.41;;;16.04;40.39
79004;BME280;68369;51.050;17.018;2023-06-04T20:27:00;100666.58;;;15.77;41.44
79004;BME280;68369;51.050;17.018;2023-06-04T20:29:46;100665.56;;;15.70;41.54
79004;BME280;68369;51.050;17.018;2023-06-04T20:32:33;100672.40;;;15.64;41.79
79004;BME280;68369;51.050;17.018;2023-06-04T20:35:20;100674.38;;;15.58;41.88
79004;BME280;68369;51.050;17.018;2023-06-04T20:38:14;100676.55;;;15.51;42.01
79004;BME280;68369;51.050;17.018;2023-06-04T20:44:18;100678.27;;;15.39;42.44
79004;BME280;68369;51.050;17.018;2023-06-04T20:47:04;100680.73;;;15.33;42.49
79004;BME280;68369;51.050;17.018;2023-06-04T20:49:51;100680.65;;;15.28;42.59
79004;BME280;68369;51.050;17.018;2023-06-04T20:52:37;100681.98;;;15.23;42.74
79004;BME280;68369;51.050;17.018;2023-06-04T20:55:26;100687.24;;;15.17;42.95
79004;BME280;68369;51.050;17.018;2023-06-04T20:58:11;100687.92;;;15.11;42.80
79004;BME280;68369;51.050;17.018;2023-06-04T21:00:57;100690.02;;;15.05;43.07
79004;BME280;68369;51.050;17.018;2023-06-04T21:03:44;100690.66;;;15.00;43.36
79004;BME280;68369;51.050;17.018;2023-06-04T21:06:32;100683.94;;;14.94;43.23
79004;BME280;68369;51.050;17.018;2023-06-04T21:09:18;100682.46;;;14.89;43.27
79004;BME280;68369;51.050;17.018;2023-06-04T21:12:03;100680.60;;;14.84;43.70
79004;BME280;68369;51.050;17.018;2023-06-04T21:14:51;100680.61;;;14.80;43.78
79004;BME280;68369;51.050;17.018;2023-06-04T21:17:37;100684.02;;;14.76;44.00
79004;BME280;68369;51.050;17.018;2023-06-04T21:20:23;100684.09;;;14.74;44.01
79004;BME280;68369;51.050;17.018;2023-06-04T21:23:09;100685.67;;;14.71;44.05
79004;BME280;68369;51.050;17.018;2023-06-04T21:25:55;100686.89;;;14.68;44.07
79004;BME280;68369;51.050;17.018;2023-06-04T21:28:41;100685.38;;;14.64;44.17
79004;BME280;68369;51.050;17.018;2023-06-04T21:31:27;100688.96;;;14.59;44.00
79004;BME280;68369;51.050;17.018;2023-06-04T21:34:13;100690.58;;;14.55;44.41
79004;BME280;68369;51.050;17.018;2023-06-04T21:37:00;100688.02;;;14.50;44.49
79004;BME280;68369;51.050;17.018;2023-06-04T21:39:46;100693.66;;;14.46;44.35
79004;BME280;68369;51.050;17.018;2023-06-04T21:42:33;100692.88;;;14.41;44.64
79004;BME280;68369;51.050;17.018;2023-06-04T21:45:24;100691.39;;;14.36;44.93
79004;BME280;68369;51.050;17.018;2023-06-04T21:51:19;100693.51;;;14.26;45.64
79004;BME280;68369;51.050;17.018;2023-06-04T21:54:06;100698.33;;;14.21;45.36
79004;BME280;68369;51.050;17.018;2023-06-04T21:56:55;100700.10;;;14.18;45.69
79004;BME280;68369;51.050;17.018;2023-06-04T21:59:40;100700.52;;;14.12;45.88
79004;BME280;68369;51.050;17.018;2023-06-04T22:02:25;100707.99;;;14.07;45.78
79004;BME280;68369;51.050;17.018;2023-06-04T22:05:11;100709.33;;;14.02;45.97
79004;BME280;68369;51.050;17.018;2023-06-04T22:07:58;100712.59;;;13.97;46.20
79004;BME280;68369;51.050;17.018;2023-06-04T22:10:46;100706.75;;;13.90;46.36
79004;BME280;68369;51.050;17.018;2023-06-04T22:13:31;100708.94;;;13.85;46.47
79004;BME280;68369;51.050;17.018;2023-06-04T22:16:18;100706.39;;;13.80;46.55
79004;BME280;68369;51.050;17.018;2023-06-04T22:19:07;100707.38;;;13.74;46.71
79004;BME280;68369;51.050;17.018;2023-06-04T22:31:38;100699.27;;;13.53;47.50
79004;BME280;68369;51.050;17.018;2023-06-04T22:34:25;100692.21;;;13.45;47.73
79004;BME280;68369;51.050;17.018;2023-06-04T22:37:10;100698.20;;;13.46;48.02
79004;BME280;68369;51.050;17.018;2023-06-04T22:39:57;100697.14;;;13.42;47.77
79004;BME280;68369;51.050;17.018;2023-06-04T22:42:46;100699.80;;;13.38;48.13
79004;BME280;68369;51.050;17.018;2023-06-04T22:45:32;100701.02;;;13.34;48.03
79004;BME280;68369;51.050;17.018;2023-06-04T22:48:17;100699.83;;;13.30;48.29
79004;BME280;68369;51.050;17.018;2023-06-04T22:51:03;100700.08;;;13.23;48.37
79004;BME280;68369;51.050;17.018;2023-06-04T22:53:51;100701.17;;;13.19;48.56
79004;BME280;68369;51.050;17.018;2023-06-04T22:56:37;100698.02;;;13.15;48.64
79004;BME280;68369;51.050;17.018;2023-06-04T22:59:22;100698.55;;;13.11;48.63
79004;BME280;68369;51.050;17.018;2023-06-04T23:02:12;100699.86;;;13.06;48.79
79004;BME280;68369;51.050;17.018;2023-06-04T23:05:00;100703.41;;;13.01;48.98
79004;BME280;68369;51.050;17.018;2023-06-04T23:07:47;100699.87;;;12.98;49.07
79004;BME280;68369;51.050;17.018;2023-06-04T23:10:33;100700.23;;;12.94;48.89
79004;BME280;68369;51.050;17.018;2023-06-04T23:13:20;100696.74;;;12.90;48.87
79004;BME280;68369;51.050;17.018;2023-06-04T23:16:06;100694.73;;;12.84;48.89
79004;BME280;68369;51.050;17.018;2023-06-04T23:18:52;100698.08;;;12.83;48.96
79004;BME280;68369;51.050;17.018;2023-06-04T23:21:38;100700.33;;;12.80;49.07
79004;BME280;68369;51.050;17.018;2023-06-04T23:24:23;100695.67;;;12.78;49.18
79004;BME280;68369;51.050;17.018;2023-06-04T23:27:09;100700.84;;;12.77;49.19
79004;BME280;68369;51.050;17.018;2023-06-04T23:29:55;100701.11;;;12.75;49.19
79004;BME280;68369;51.050;17.018;2023-06-04T23:32:40;100700.83;;;12.73;49.21
79004;BME280;68369;51.050;17.018;2023-06-04T23:35:28;100702.17;;;12.71;49.31
79004;BME280;68369;51.050;17.018;2023-06-04T23:38:13;100703.01;;;12.68;49.36
79004;BME280;68369;51.050;17.018;2023-06-04T23:40:59;100705.20;;;12.66;49.44
79004;BME280;68369;51.050;17.018;2023-06-04T23:43:45;100706.36;;;12.64;49.33
79004;BME280;68369;51.050;17.018;2023-06-04T23:46:31;100705.56;;;12.61;49.31
79004;BME280;68369;51.050;17.018;2023-06-04T23:49:16;100705.13;;;12.59;49.49
79004;BME280;68369;51.050;17.018;2023-06-04T23:52:02;100703.77;;;12.58;49.53
79004;BME280;68369;51.050;17.018;2023-06-04T23:54:48;100706.25;;;12.58;49.45
79004;BME280;68369;51.050;17.018;2023-06-04T23:57:33;100707.14;;;12.58;49.59
